Welcome to the New NWS' Forecast!
Most changes are behind the scenes, but click here for differences you might notice.

Terminal Aerodrome Forecast (TAF)

Issued by National Weather Service (NWS)

                            
384 
FTUS42 KMFL 181601 AAB
TAFMIA
TAF AMD
KMIA 181601Z 1816/1918 11010KT P6SM VCTS SCT050CB BKN150 BKN250
     FM181900 11012KT P6SM FEW030
     FM190000 12004KT P6SM SCT025 SCT250
     FM191200 13005KT P6SM VCSH SCT035=